sensor_id;sensor_type;location;lat;lon;timestamp;pressure;altitude;pressure_sealevel;temperature;humidity
15884;BME280;8040;50.254;10.960;2023-06-26T00:02:03;98221.34;;;20.36;67.40
15884;BME280;8040;50.254;10.960;2023-06-26T00:04:29;98225.97;;;20.32;67.53
15884;BME280;8040;50.254;10.960;2023-06-26T00:06:54;98218.44;;;20.29;67.69
15884;BME280;8040;50.254;10.960;2023-06-26T00:09:20;98216.84;;;20.28;67.90
15884;BME280;8040;50.254;10.960;2023-06-26T00:11:46;98222.28;;;20.24;68.33
15884;BME280;8040;50.254;10.960;2023-06-26T00:14:11;98220.19;;;20.18;68.29
15884;BME280;8040;50.254;10.960;2023-06-26T00:16:36;98213.03;;;20.13;68.56
15884;BME280;8040;50.254;10.960;2023-06-26T00:19:02;98222.00;;;20.10;68.71
15884;BME280;8040;50.254;10.960;2023-06-26T00:21:27;98221.09;;;20.06;68.89
15884;BME280;8040;50.254;10.960;2023-06-26T00:23:53;98213.97;;;20.05;68.89
15884;BME280;8040;50.254;10.960;2023-06-26T00:26:18;98218.25;;;20.03;69.21
15884;BME280;8040;50.254;10.960;2023-06-26T00:28:43;98222.91;;;19.99;69.52
15884;BME280;8040;50.254;10.960;2023-06-26T00:31:18;98216.94;;;19.97;69.53
15884;BME280;8040;50.254;10.960;2023-06-26T00:33:43;98214.13;;;19.93;69.85
15884;BME280;8040;50.254;10.960;2023-06-26T00:36:08;98217.97;;;19.89;70.01
15884;BME280;8040;50.254;10.960;2023-06-26T00:38:34;98216.38;;;19.88;70.30
15884;BME280;8040;50.254;10.960;2023-06-26T00:40:59;98214.69;;;19.83;70.55
15884;BME280;8040;50.254;10.960;2023-06-26T00:43:27;98211.88;;;19.80;70.67
15884;BME280;8040;50.254;10.960;2023-06-26T00:45:52;98213.38;;;19.77;70.70
15884;BME280;8040;50.254;10.960;2023-06-26T00:48:17;98212.94;;;19.75;70.95
15884;BME280;8040;50.254;10.960;2023-06-26T00:50:43;98214.00;;;19.71;71.11
15884;BME280;8040;50.254;10.960;2023-06-26T00:53:10;98214.38;;;19.69;71.28
15884;BME280;8040;50.254;10.960;2023-06-26T00:55:36;98202.94;;;19.67;71.59
15884;BME280;8040;50.254;10.960;2023-06-26T00:58:01;98200.09;;;19.64;71.55
15884;BME280;8040;50.254;10.960;2023-06-26T01:00:26;98205.53;;;19.60;71.76
15884;BME280;8040;50.254;10.960;2023-06-26T01:02:52;98204.28;;;19.58;71.87
15884;BME280;8040;50.254;10.960;2023-06-26T01:05:18;98204.63;;;19.56;72.14
15884;BME280;8040;50.254;10.960;2023-06-26T01:07:46;98195.13;;;19.54;72.43
15884;BME280;8040;50.254;10.960;2023-06-26T01:10:12;98205.28;;;19.50;72.37
15884;BME280;8040;50.254;10.960;2023-06-26T01:12:38;98205.63;;;19.48;72.36
15884;BME280;8040;50.254;10.960;2023-06-26T01:15:05;98198.53;;;19.47;72.63
15884;BME280;8040;50.254;10.960;2023-06-26T01:17:31;98200.41;;;19.43;72.83
15884;BME280;8040;50.254;10.960;2023-06-26T01:20:00;98196.41;;;19.41;73.08
15884;BME280;8040;50.254;10.960;2023-06-26T01:25:17;98197.50;;;19.36;73.71
15884;BME280;8040;50.254;10.960;2023-06-26T01:27:46;98193.50;;;19.34;74.02
15884;BME280;8040;50.254;10.960;2023-06-26T01:30:13;98188.69;;;19.31;74.06
15884;BME280;8040;50.254;10.960;2023-06-26T01:32:40;98193.00;;;19.28;74.14
15884;BME280;8040;50.254;10.960;2023-06-26T01:35:07;98195.28;;;19.26;74.31
15884;BME280;8040;50.254;10.960;2023-06-26T01:37:33;98192.09;;;19.24;74.38
15884;BME280;8040;50.254;10.960;2023-06-26T01:39:58;98196.34;;;19.22;74.47
15884;BME280;8040;50.254;10.960;2023-06-26T01:42:24;98192.34;;;19.19;74.79
15884;BME280;8040;50.254;10.960;2023-06-26T01:44:49;98193.50;;;19.18;75.00
15884;BME280;8040;50.254;10.960;2023-06-26T01:47:19;98190.31;;;19.16;75.09
15884;BME280;8040;50.254;10.960;2023-06-26T01:49:47;98185.06;;;19.11;75.28
15884;BME280;8040;50.254;10.960;2023-06-26T01:52:21;98186.25;;;19.10;75.22
15884;BME280;8040;50.254;10.960;2023-06-26T01:54:58;98180.28;;;19.08;75.60
15884;BME280;8040;50.254;10.960;2023-06-26T01:57:31;98181.44;;;19.07;75.76
15884;BME280;8040;50.254;10.960;2023-06-26T01:59:56;98182.16;;;19.04;75.73
15884;BME280;8040;50.254;10.960;2023-06-26T02:02:24;98180.09;;;19.01;75.64
15884;BME280;8040;50.254;10.960;2023-06-26T02:04:49;98183.59;;;18.98;75.85
15884;BME280;8040;50.254;10.960;2023-06-26T02:07:15;98189.44;;;18.97;75.74
15884;BME280;8040;50.254;10.960;2023-06-26T02:09:40;98192.09;;;18.93;75.86
15884;BME280;8040;50.254;10.960;2023-06-26T02:12:06;98188.09;;;18.91;76.07
15884;BME280;8040;50.254;10.960;2023-06-26T02:14:31;98188.09;;;18.91;76.41
15884;BME280;8040;50.254;10.960;2023-06-26T02:16:57;98179.34;;;18.85;76.38
15884;BME280;8040;50.254;10.960;2023-06-26T02:25:28;98183.03;;;18.77;76.73
15884;BME280;8040;50.254;10.960;2023-06-26T02:27:53;98181.44;;;18.76;76.70
15884;BME280;8040;50.254;10.960;2023-06-26T02:30:20;98184.53;;;18.75;76.92
15884;BME280;8040;50.254;10.960;2023-06-26T02:32:45;98175.84;;;18.73;77.13
15884;BME280;8040;50.254;10.960;2023-06-26T02:35:10;98180.53;;;18.72;77.05
15884;BME280;8040;50.254;10.960;2023-06-26T02:37:35;98178.94;;;18.71;77.47
15884;BME280;8040;50.254;10.960;2023-06-26T02:40:02;98178.16;;;18.71;77.52
15884;BME280;8040;50.254;10.960;2023-06-26T02:42:28;98178.94;;;18.71;77.44
15884;BME280;8040;50.254;10.960;2023-06-26T02:44:54;98178.88;;;18.68;77.72
15884;BME280;8040;50.254;10.960;2023-06-26T02:47:19;98180.81;;;18.67;77.99
15884;BME280;8040;50.254;10.960;2023-06-26T02:49:44;98180.81;;;18.67;77.82
15884;BME280;8040;50.254;10.960;2023-06-26T02:52:10;98176.03;;;18.64;77.96
15884;BME280;8040;50.254;10.960;2023-06-26T02:54:35;98179.94;;;18.63;78.26
15884;BME280;8040;50.254;10.960;2023-06-26T02:57:00;98174.78;;;18.62;78.31
15884;BME280;8040;50.254;10.960;2023-06-26T02:59:26;98176.28;;;18.59;78.38
15884;BME280;8040;50.254;10.960;2023-06-26T03:01:51;98182.50;;;18.56;78.33
15884;BME280;8040;50.254;10.960;2023-06-26T03:04:16;98175.41;;;18.55;78.36
15884;BME280;8040;50.254;10.960;2023-06-26T03:06:48;98183.66;;;18.55;78.37
15884;BME280;8040;50.254;10.960;2023-06-26T03:09:13;98180.81;;;18.52;78.27
15884;BME280;8040;50.254;10.960;2023-06-26T03:11:38;98174.50;;;18.51;78.08
15884;BME280;8040;50.254;10.960;2023-06-26T03:14:03;98179.09;;;18.47;78.18
15884;BME280;8040;50.254;10.960;2023-06-26T03:16:29;98176.34;;;18.47;78.50
15884;BME280;8040;50.254;10.960;2023-06-26T03:18:54;98173.16;;;18.45;78.40
15884;BME280;8040;50.254;10.960;2023-06-26T03:21:19;98174.31;;;18.44;78.46
15884;BME280;8040;50.254;10.960;2023-06-26T03:23:45;98176.59;;;18.42;78.57
15884;BME280;8040;50.254;10.960;2023-06-26T03:26:10;98189.91;;;18.40;78.69
15884;BME280;8040;50.254;10.960;2023-06-26T03:31:57;98179.72;;;18.41;78.99
15884;BME280;8040;50.254;10.960;2023-06-26T03:34:22;98175.47;;;18.43;78.90
15884;BME280;8040;50.254;10.960;2023-06-26T03:36:48;98187.59;;;18.42;78.97
15884;BME280;8040;50.254;10.960;2023-06-26T03:39:13;98175.38;;;18.40;78.98
15884;BME280;8040;50.254;10.960;2023-06-26T03:41:38;98179.00;;;18.44;79.13
15884;BME280;8040;50.254;10.960;2023-06-26T03:44:03;98175.00;;;18.41;79.30
15884;BME280;8040;50.254;10.960;2023-06-26T03:46:29;98180.16;;;18.43;79.08
15884;BME280;8040;50.254;10.960;2023-06-26T03:48:54;98173.84;;;18.42;79.16
15884;BME280;8040;50.254;10.960;2023-06-26T03:54:43;98177.06;;;18.44;79.08
15884;BME280;8040;50.254;10.960;2023-06-26T03:57:08;98176.25;;;18.44;79.13
15884;BME280;8040;50.254;10.960;2023-06-26T03:59:33;98172.34;;;18.45;79.29
15884;BME280;8040;50.254;10.960;2023-06-26T04:01:59;98174.41;;;18.48;79.19
15884;BME280;8040;50.254;10.960;2023-06-26T04:04:24;98172.91;;;18.50;79.27
15884;BME280;8040;50.254;10.960;2023-06-26T04:06:49;98174.16;;;18.53;79.47
15884;BME280;8040;50.254;10.960;2023-06-26T04:09:15;98171.50;;;18.56;79.49
15884;BME280;8040;50.254;10.960;2023-06-26T04:11:41;98173.53;;;18.59;79.63
15884;BME280;8040;50.254;10.960;2023-06-26T04:14:06;98171.69;;;18.63;79.45
15884;BME280;8040;50.254;10.960;2023-06-26T04:16:31;98171.44;;;18.68;79.14
15884;BME280;8040;50.254;10.960;2023-06-26T04:18:57;98172.75;;;18.74;79.22
15884;BME280;8040;50.254;10.960;2023-06-26T04:21:23;98168.13;;;18.78;79.16
15884;BME280;8040;50.254;10.960;2023-06-26T04:23:51;98167.53;;;18.85;78.83
15884;BME280;8040;50.254;10.960;2023-06-26T04:26:16;98170.44;;;18.92;78.75
15884;BME280;8040;50.254;10.960;2023-06-26T04:28:42;98167.09;;;18.98;78.72
15884;BME280;8040;50.254;10.960;2023-06-26T04:31:07;98162.44;;;19.02;78.32
15884;BME280;8040;50.254;10.960;2023-06-26T04:33:34;98176.38;;;19.09;78.22
15884;BME280;8040;50.254;10.960;2023-06-26T04:36:01;98178.84;;;19.14;77.98
15884;BME280;8040;50.254;10.960;2023-06-26T04:38:33;98170.34;;;19.19;77.63
15884;BME280;8040;50.254;10.960;2023-06-26T04:41:02;98172.94;;;19.28;77.53
15884;BME280;8040;50.254;10.960;2023-06-26T04:43:28;98170.66;;;19.49;76.87
15884;BME280;8040;50.254;10.960;2023-06-26T04:45:53;98166.81;;;19.88;74.91
15884;BME280;8040;50.254;10.960;2023-06-26T04:48:19;98167.41;;;20.35;72.06
15884;BME280;8040;50.254;10.960;2023-06-26T04:50:44;98168.03;;;20.47;71.18
15884;BME280;8040;50.254;10.960;2023-06-26T04:53:17;98171.88;;;20.43;70.59
15884;BME280;8040;50.254;10.960;2023-06-26T04:55:43;98176.03;;;20.33;70.20
15884;BME280;8040;50.254;10.960;2023-06-26T04:58:08;98172.34;;;20.26;70.33
15884;BME280;8040;50.254;10.960;2023-06-26T05:00:35;98173.84;;;20.23;70.08
15884;BME280;8040;50.254;10.960;2023-06-26T05:03:01;98174.66;;;20.24;70.05
15884;BME280;8040;50.254;10.960;2023-06-26T05:05:27;98170.00;;;20.28;69.80
15884;BME280;8040;50.254;10.960;2023-06-26T05:07:53;98162.63;;;20.32;69.77
15884;BME280;8040;50.254;10.960;2023-06-26T05:10:19;98157.59;;;20.37;69.67
15884;BME280;8040;50.254;10.960;2023-06-26T05:12:44;98165.13;;;20.40;69.01
15884;BME280;8040;50.254;10.960;2023-06-26T05:15:09;98162.81;;;20.42;67.91
15884;BME280;8040;50.254;10.960;2023-06-26T05:17:35;98163.25;;;20.44;67.20
15884;BME280;8040;50.254;10.960;2023-06-26T05:20:00;98161.84;;;20.54;66.90
15884;BME280;8040;50.254;10.960;2023-06-26T05:22:33;98164.38;;;20.85;66.26
15884;BME280;8040;50.254;10.960;2023-06-26T05:25:00;98167.56;;;21.09;65.09
15884;BME280;8040;50.254;10.960;2023-06-26T05:27:26;98157.13;;;21.22;63.95
15884;BME280;8040;50.254;10.960;2023-06-26T05:29:52;98158.16;;;21.36;62.67
15884;BME280;8040;50.254;10.960;2023-06-26T05:32:17;98161.25;;;21.61;61.45
15884;BME280;8040;50.254;10.960;2023-06-26T05:34:44;98159.06;;;21.70;60.90
15884;BME280;8040;50.254;10.960;2023-06-26T05:37:11;98151.38;;;21.86;60.20
15884;BME280;8040;50.254;10.960;2023-06-26T05:39:39;98152.22;;;21.90;59.49
15884;BME280;8040;50.254;10.960;2023-06-26T05:42:04;98147.44;;;21.87;59.42
15884;BME280;8040;50.254;10.960;2023-06-26T05:44:31;98155.25;;;21.81;58.93
15884;BME280;8040;50.254;10.960;2023-06-26T05:46:56;98150.06;;;21.76;58.93
15884;BME280;8040;50.254;10.960;2023-06-26T05:49:22;98159.19;;;21.80;59.16
15884;BME280;8040;50.254;10.960;2023-06-26T05:51:47;98153.44;;;21.92;59.21
15884;BME280;8040;50.254;10.960;2023-06-26T05:54:13;98161.47;;;22.04;58.78
15884;BME280;8040;50.254;10.960;2023-06-26T05:56:38;98157.59;;;22.09;58.53
15884;BME280;8040;50.254;10.960;2023-06-26T05:59:04;98159.59;;;22.12;58.13
15884;BME280;8040;50.254;10.960;2023-06-26T06:01:31;98157.25;;;22.14;58.01
15884;BME280;8040;50.254;10.960;2023-06-26T06:03:58;98153.38;;;22.22;58.24
15884;BME280;8040;50.254;10.960;2023-06-26T06:06:27;98153.44;;;22.25;58.03
15884;BME280;8040;50.254;10.960;2023-06-26T06:08:52;98153.94;;;22.34;57.58
15884;BME280;8040;50.254;10.960;2023-06-26T06:11:17;98153.22;;;22.77;56.85
15884;BME280;8040;50.254;10.960;2023-06-26T06:13:43;98150.53;;;23.28;55.79
15884;BME280;8040;50.254;10.960;2023-06-26T06:16:08;98151.88;;;23.55;54.63
15884;BME280;8040;50.254;10.960;2023-06-26T06:18:33;98151.91;;;23.58;53.82
15884;BME280;8040;50.254;10.960;2023-06-26T06:20:59;98157.41;;;23.51;52.94
15884;BME280;8040;50.254;10.960;2023-06-26T06:23:24;98143.50;;;23.41;53.01
15884;BME280;8040;50.254;10.960;2023-06-26T06:25:50;98145.00;;;23.31;53.10
15884;BME280;8040;50.254;10.960;2023-06-26T06:28:20;98153.28;;;23.24;53.28
15884;BME280;8040;50.254;10.960;2023-06-26T06:30:46;98150.00;;;23.15;53.32
15884;BME280;8040;50.254;10.960;2023-06-26T06:33:13;98151.91;;;23.08;52.86
15884;BME280;8040;50.254;10.960;2023-06-26T06:35:38;98150.28;;;23.03;52.58
15884;BME280;8040;50.254;10.960;2023-06-26T06:38:03;98151.47;;;23.02;51.69
15884;BME280;8040;50.254;10.960;2023-06-26T06:40:29;98155.81;;;23.03;52.06
15884;BME280;8040;50.254;10.960;2023-06-26T06:42:54;98144.44;;;23.15;52.32
15884;BME280;8040;50.254;10.960;2023-06-26T06:45:19;98144.97;;;23.24;52.49
15884;BME280;8040;50.254;10.960;2023-06-26T06:47:45;98147.44;;;23.40;51.65
15884;BME280;8040;50.254;10.960;2023-06-26T06:50:10;98140.47;;;23.63;50.77
15884;BME280;8040;50.254;10.960;2023-06-26T06:52:36;98135.13;;;23.95;50.09
15884;BME280;8040;50.254;10.960;2023-06-26T06:55:02;98136.03;;;24.27;48.89
15884;BME280;8040;50.254;10.960;2023-06-26T06:57:44;98138.13;;;24.61;48.36
15884;BME280;8040;50.254;10.960;2023-06-26T07:00:45;98138.53;;;25.02;47.39
15884;BME280;8040;50.254;10.960;2023-06-26T07:03:10;98136.19;;;25.25;46.53
15884;BME280;8040;50.254;10.960;2023-06-26T07:05:40;98132.59;;;25.45;46.31
15884;BME280;8040;50.254;10.960;2023-06-26T07:08:06;98137.75;;;25.57;45.05
15884;BME280;8040;50.254;10.960;2023-06-26T07:10:31;98126.97;;;25.66;44.21
15884;BME280;8040;50.254;10.960;2023-06-26T07:12:56;98126.97;;;25.66;43.16
15884;BME280;8040;50.254;10.960;2023-06-26T07:15:22;98128.19;;;25.62;43.79
15884;BME280;8040;50.254;10.960;2023-06-26T07:17:47;98121.81;;;25.65;43.82
15884;BME280;8040;50.254;10.960;2023-06-26T07:20:13;98118.63;;;25.73;44.05
15884;BME280;8040;50.254;10.960;2023-06-26T07:22:41;98119.41;;;25.81;44.44
15884;BME280;8040;50.254;10.960;2023-06-26T07:25:06;98113.84;;;25.77;43.82
15884;BME280;8040;50.254;10.960;2023-06-26T07:27:35;98117.06;;;25.69;43.89
15884;BME280;8040;50.254;10.960;2023-06-26T07:30:01;98128.56;;;25.67;44.12
15884;BME280;8040;50.254;10.960;2023-06-26T07:32:26;98123.81;;;25.64;44.41
15884;BME280;8040;50.254;10.960;2023-06-26T07:34:51;98123.44;;;25.62;44.61
15884;BME280;8040;50.254;10.960;2023-06-26T07:37:17;98123.03;;;25.60;44.79
15884;BME280;8040;50.254;10.960;2023-06-26T07:39:42;98117.09;;;25.55;45.03
15884;BME280;8040;50.254;10.960;2023-06-26T07:42:07;98119.47;;;25.49;44.25
15884;BME280;8040;50.254;10.960;2023-06-26T07:44:33;98119.91;;;25.37;43.74
15884;BME280;8040;50.254;10.960;2023-06-26T07:46:58;98124.28;;;25.38;44.72
15884;BME280;8040;50.254;10.960;2023-06-26T07:49:29;98123.09;;;25.36;44.46
15884;BME280;8040;50.254;10.960;2023-06-26T07:51:54;98128.22;;;25.37;44.83
15884;BME280;8040;50.254;10.960;2023-06-26T07:54:19;98127.06;;;25.38;44.52
15884;BME280;8040;50.254;10.960;2023-06-26T07:56:55;98119.50;;;25.42;44.97
15884;BME280;8040;50.254;10.960;2023-06-26T07:59:23;98123.88;;;25.47;44.61
15884;BME280;8040;50.254;10.960;2023-06-26T08:01:58;98117.13;;;25.51;44.36
15884;BME280;8040;50.254;10.960;2023-06-26T08:04:25;98114.72;;;25.50;43.99
15884;BME280;8040;50.254;10.960;2023-06-26T08:06:54;98117.13;;;25.37;42.84
15884;BME280;8040;50.254;10.960;2023-06-26T08:09:24;98114.78;;;25.25;43.15
15884;BME280;8040;50.254;10.960;2023-06-26T08:11:49;98115.16;;;25.31;43.62
15884;BME280;8040;50.254;10.960;2023-06-26T08:14:17;98113.16;;;25.38;44.03
15884;BME280;8040;50.254;10.960;2023-06-26T08:16:43;98109.97;;;25.50;44.10
15884;BME280;8040;50.254;10.960;2023-06-26T08:19:12;98109.53;;;25.62;43.43
15884;BME280;8040;50.254;10.960;2023-06-26T08:21:37;98102.78;;;25.67;43.45
15884;BME280;8040;50.254;10.960;2023-06-26T08:24:03;98100.81;;;25.57;43.32
15884;BME280;8040;50.254;10.960;2023-06-26T08:26:28;98096.41;;;25.66;43.71
15884;BME280;8040;50.254;10.960;2023-06-26T08:28:53;98097.59;;;25.72;43.90
15884;BME280;8040;50.254;10.960;2023-06-26T08:31:22;98097.56;;;25.79;43.61
15884;BME280;8040;50.254;10.960;2023-06-26T08:33:48;98097.16;;;25.84;43.26
15884;BME280;8040;50.254;10.960;2023-06-26T08:36:13;98094.78;;;25.90;43.26
15884;BME280;8040;50.254;10.960;2023-06-26T08:38:39;98097.16;;;25.91;43.21
15884;BME280;8040;50.254;10.960;2023-06-26T08:41:07;98093.19;;;25.96;42.95
15884;BME280;8040;50.254;10.960;2023-06-26T08:53:49;98087.97;;;26.01;42.92
15884;BME280;8040;50.254;10.960;2023-06-26T08:56:37;98091.13;;;26.03;42.93
15884;BME280;8040;50.254;10.960;2023-06-26T08:59:05;98088.34;;;26.03;43.07
15884;BME280;8040;50.254;10.960;2023-06-26T09:01:31;98084.38;;;26.04;42.68
15884;BME280;8040;50.254;10.960;2023-06-26T09:03:57;98072.47;;;26.07;42.15
15884;BME280;8040;50.254;10.960;2023-06-26T09:06:22;98082.34;;;26.12;42.90
15884;BME280;8040;50.254;10.960;2023-06-26T09:08:47;98079.19;;;26.13;43.08
15884;BME280;8040;50.254;10.960;2023-06-26T09:11:13;98079.56;;;26.15;42.62
15884;BME280;8040;50.254;10.960;2023-06-26T09:13:43;98072.41;;;26.18;42.54
15884;BME280;8040;50.254;10.960;2023-06-26T09:16:09;98079.13;;;26.20;41.67
15884;BME280;8040;50.254;10.960;2023-06-26T09:18:34;98074.75;;;26.23;42.27
15884;BME280;8040;50.254;10.960;2023-06-26T09:21:00;98078.72;;;26.25;42.44
15884;BME280;8040;50.254;10.960;2023-06-26T09:23:26;98072.31;;;26.28;42.26
15884;BME280;8040;50.254;10.960;2023-06-26T09:25:51;98079.50;;;26.29;42.56
15884;BME280;8040;50.254;10.960;2023-06-26T09:28:17;98071.94;;;26.30;41.84
15884;BME280;8040;50.254;10.960;2023-06-26T09:30:42;98063.66;;;26.19;43.09
15884;BME280;8040;50.254;10.960;2023-06-26T09:33:14;98077.91;;;26.28;42.63
15884;BME280;8040;50.254;10.960;2023-06-26T09:35:42;98076.72;;;26.29;42.10
15884;BME280;8040;50.254;10.960;2023-06-26T09:38:08;98067.56;;;26.29;42.13
15884;BME280;8040;50.254;10.960;2023-06-26T09:40:33;98074.31;;;26.31;42.54
15884;BME280;8040;50.254;10.960;2023-06-26T09:43:03;98066.75;;;26.32;41.85
15884;BME280;8040;50.254;10.960;2023-06-26T09:45:28;98068.34;;;26.33;42.69
15884;BME280;8040;50.254;10.960;2023-06-26T09:47:53;98068.69;;;26.38;41.86
15884;BME280;8040;50.254;10.960;2023-06-26T09:50:22;98062.75;;;26.40;42.04
15884;BME280;8040;50.254;10.960;2023-06-26T09:52:50;98063.50;;;26.40;42.40
15884;BME280;8040;50.254;10.960;2023-06-26T09:55:15;98052.00;;;26.42;42.14
15884;BME280;8040;50.254;10.960;2023-06-26T10:00:25;98054.75;;;26.45;42.22
15884;BME280;8040;50.254;10.960;2023-06-26T10:02:50;98049.19;;;26.45;42.04
15884;BME280;8040;50.254;10.960;2023-06-26T10:05:15;98049.97;;;26.46;42.02
15884;BME280;8040;50.254;10.960;2023-06-26T10:07:41;98053.94;;;26.48;41.20
15884;BME280;8040;50.254;10.960;2023-06-26T10:10:07;98054.69;;;26.52;41.22
15884;BME280;8040;50.254;10.960;2023-06-26T10:12:32;98051.50;;;26.57;41.28
15884;BME280;8040;50.254;10.960;2023-06-26T10:14:59;98048.28;;;26.62;40.71
15884;BME280;8040;50.254;10.960;2023-06-26T10:17:27;98040.72;;;26.66;40.40
15884;BME280;8040;50.254;10.960;2023-06-26T10:19:55;98036.31;;;26.69;41.05
15884;BME280;8040;50.254;10.960;2023-06-26T10:22:25;98033.50;;;26.72;40.50
15884;BME280;8040;50.254;10.960;2023-06-26T10:24:52;98043.41;;;26.77;41.37
15884;BME280;8040;50.254;10.960;2023-06-26T10:27:20;98042.19;;;26.78;40.62
15884;BME280;8040;50.254;10.960;2023-06-26T10:29:47;98039.78;;;26.80;40.35
15884;BME280;8040;50.254;10.960;2023-06-26T10:32:13;98033.78;;;26.85;36.37
15884;BME280;8040;50.254;10.960;2023-06-26T10:34:39;98041.72;;;26.86;39.58
15884;BME280;8040;50.254;10.960;2023-06-26T10:37:05;98042.09;;;26.88;40.23
15884;BME280;8040;50.254;10.960;2023-06-26T10:39:49;98031.38;;;26.90;39.13
15884;BME280;8040;50.254;10.960;2023-06-26T10:42:18;98030.56;;;26.90;37.22
15884;BME280;8040;50.254;10.960;2023-06-26T10:44:45;98018.59;;;26.96;36.73
15884;BME280;8040;50.254;10.960;2023-06-26T10:47:12;98020.88;;;27.01;37.36
15884;BME280;8040;50.254;10.960;2023-06-26T10:49:53;98014.50;;;27.04;36.01
15884;BME280;8040;50.254;10.960;2023-06-26T10:52:18;98021.63;;;27.08;37.49
15884;BME280;8040;50.254;10.960;2023-06-26T10:54:47;98015.25;;;27.12;38.34
15884;BME280;8040;50.254;10.960;2023-06-26T10:57:12;98000.97;;;27.06;37.08
15884;BME280;8040;50.254;10.960;2023-06-26T10:59:48;98013.63;;;27.14;37.51
15884;BME280;8040;50.254;10.960;2023-06-26T11:02:16;98004.88;;;27.12;39.40
15884;BME280;8040;50.254;10.960;2023-06-26T11:04:46;98006.84;;;27.15;38.09
15884;BME280;8040;50.254;10.960;2023-06-26T11:07:24;97997.31;;;27.16;38.56
15884;BME280;8040;50.254;10.960;2023-06-26T11:09:53;98006.44;;;27.17;35.70
15884;BME280;8040;50.254;10.960;2023-06-26T11:15:01;98003.84;;;27.36;35.26
15884;BME280;8040;50.254;10.960;2023-06-26T11:17:27;97993.41;;;27.43;36.37
15884;BME280;8040;50.254;10.960;2023-06-26T11:19:53;97981.00;;;27.48;36.80
15884;BME280;8040;50.254;10.960;2023-06-26T11:22:20;97984.59;;;27.48;34.45
15884;BME280;8040;50.254;10.960;2023-06-26T11:24:45;97988.50;;;27.54;34.33
15884;BME280;8040;50.254;10.960;2023-06-26T11:27:11;97991.63;;;27.60;34.09
15884;BME280;8040;50.254;10.960;2023-06-26T11:29:41;97983.56;;;27.65;34.10
15884;BME280;8040;50.254;10.960;2023-06-26T11:32:12;97989.06;;;27.72;33.96
15884;BME280;8040;50.254;10.960;2023-06-26T11:34:41;97986.25;;;27.76;34.82
15884;BME280;8040;50.254;10.960;2023-06-26T11:37:19;97980.94;;;27.85;35.05
15884;BME280;8040;50.254;10.960;2023-06-26T11:39:44;97988.84;;;27.90;35.88
15884;BME280;8040;50.254;10.960;2023-06-26T11:42:10;97993.22;;;27.91;34.30
15884;BME280;8040;50.254;10.960;2023-06-26T11:44:40;98001.59;;;27.91;36.14
15884;BME280;8040;50.254;10.960;2023-06-26T11:47:14;97994.44;;;27.90;35.75
15884;BME280;8040;50.254;10.960;2023-06-26T11:49:41;97988.44;;;27.91;34.97
15884;BME280;8040;50.254;10.960;2023-06-26T11:52:07;97980.84;;;27.92;33.90
15884;BME280;8040;50.254;10.960;2023-06-26T11:54:33;97976.34;;;28.01;34.04
15884;BME280;8040;50.254;10.960;2023-06-26T11:56:59;97980.28;;;28.04;36.21
15884;BME280;8040;50.254;10.960;2023-06-26T11:59:49;97980.28;;;28.04;36.84
15884;BME280;8040;50.254;10.960;2023-06-26T12:02:13;97986.25;;;28.06;35.45
15884;BME280;8040;50.254;10.960;2023-06-26T12:04:40;97983.47;;;28.06;35.41
15884;BME280;8040;50.254;10.960;2023-06-26T12:07:06;97987.81;;;28.07;37.18
15884;BME280;8040;50.254;10.960;2023-06-26T12:09:34;97981.38;;;28.10;36.67
15884;BME280;8040;50.254;10.960;2023-06-26T12:12:03;97993.34;;;28.10;36.71
15884;BME280;8040;50.254;10.960;2023-06-26T12:14:29;97984.94;;;28.14;36.98
15884;BME280;8040;50.254;10.960;2023-06-26T12:16:54;97975.63;;;28.20;35.40
15884;BME280;8040;50.254;10.960;2023-06-26T12:19:24;97979.53;;;28.26;33.85
15884;BME280;8040;50.254;10.960;2023-06-26T12:21:49;97979.81;;;28.35;34.74
15884;BME280;8040;50.254;10.960;2023-06-26T12:24:19;97967.22;;;28.50;34.28
15884;BME280;8040;50.254;10.960;2023-06-26T12:26:47;97972.94;;;28.66;34.71
15884;BME280;8040;50.254;10.960;2023-06-26T12:29:15;97975.59;;;28.73;36.24
15884;BME280;8040;50.254;10.960;2023-06-26T12:31:46;97969.31;;;28.69;33.87
15884;BME280;8040;50.254;10.960;2023-06-26T12:34:13;97972.53;;;28.68;35.50
15884;BME280;8040;50.254;10.960;2023-06-26T12:36:42;97963.75;;;28.66;33.01
15884;BME280;8040;50.254;10.960;2023-06-26T12:39:10;97968.50;;;28.69;33.16
15884;BME280;8040;50.254;10.960;2023-06-26T12:41:43;97970.03;;;28.73;32.79
15884;BME280;8040;50.254;10.960;2023-06-26T12:44:15;97957.22;;;28.76;32.71
15884;BME280;8040;50.254;10.960;2023-06-26T12:46:41;97964.84;;;28.72;35.05
15884;BME280;8040;50.254;10.960;2023-06-26T12:49:08;97944.97;;;28.70;36.33
15884;BME280;8040;50.254;10.960;2023-06-26T12:51:33;97961.34;;;28.68;36.39
15884;BME280;8040;50.254;10.960;2023-06-26T12:54:01;97957.47;;;28.62;36.47
15884;BME280;8040;50.254;10.960;2023-06-26T12:56:35;97947.13;;;28.59;35.00
15884;BME280;8040;50.254;10.960;2023-06-26T12:59:01;97947.94;;;28.59;34.58
15884;BME280;8040;50.254;10.960;2023-06-26T13:01:26;97944.34;;;28.59;35.40
15884;BME280;8040;50.254;10.960;2023-06-26T13:03:53;97938.41;;;28.57;35.82
15884;BME280;8040;50.254;10.960;2023-06-26T13:06:18;97936.03;;;28.55;35.57
15884;BME280;8040;50.254;10.960;2023-06-26T13:08:43;97938.47;;;28.53;36.77
15884;BME280;8040;50.254;10.960;2023-06-26T13:11:12;97933.66;;;28.54;37.05
15884;BME280;8040;50.254;10.960;2023-06-26T13:13:37;97937.69;;;28.53;36.58
15884;BME280;8040;50.254;10.960;2023-06-26T13:16:03;97929.00;;;28.47;37.32
15884;BME280;8040;50.254;10.960;2023-06-26T13:18:28;97928.47;;;28.56;36.09
15884;BME280;8040;50.254;10.960;2023-06-26T13:20:53;97931.34;;;28.72;35.93
15884;BME280;8040;50.254;10.960;2023-06-26T13:23:19;97931.72;;;28.74;36.64
15884;BME280;8040;50.254;10.960;2023-06-26T13:25:44;97913.28;;;28.80;34.04
15884;BME280;8040;50.254;10.960;2023-06-26T13:28:10;97925.53;;;28.86;34.69
15884;BME280;8040;50.254;10.960;2023-06-26T13:30:35;97928.19;;;28.93;34.29